Timeline UpdatesTrip UpdatesNews PostsPvt PostsTravel TipsAdmin PostsConv PostsFollowed PostsChat RequestsBlog PostsPNR Posts

Disclaimer
Search
 
 
Mon Apr 21, 2014 07:36:10 ISTHomeTrainsΣChainsAtlasPNRForumGalleryNewsFAQTripsMembersLoginFeedback
No Recent News for this Train
Other Trains in the News **new
Latest...
Experimental Stop provided at Pudukkad.
Fri Feb 21, 2014 (07:40PM)
⇐ Return Journey: Train# 16650

16649/Parashuram Express

Feb 21 2014 (7:39PM)
Change Departure Station:
Change Arrival Station:
Post a Train Travel TipPost a Train Travel Tip **new
Post a Comment/Question/Picture/VideoPost a Comment/Question/Picture/Video
Pantry/Catering
✓ Pantry Car Avbl
✓ Catering Avbl
RSA - Rake Sharing
Rake/Coach Composition
SLR-GS-GS-GS-GS-GS-GS-GS-PC-GS-D1-F1-C2-C1-GS-GS-SLRD
Loco
MAQ-SRR :ERS WDM 3A/ED WDM 3A/D SRR-NCJ: ED/RPM WAP 4
News    PNR    Forum    Time-Table    Availability    Fare Chart    Map    Arr/Dep History    Trips    Gallery    ΣChains    X/O    Timeline    
Travel Time: 11h 44m    40 halts    Distance: 522 km    Avg Speed: 44 km/hr
Type: Mail/Express
Zone: SR/Southern
Departs @ 06:41 (Avg 8m late)
Platform# ???
SMTWTFS
Payangadi/PAZ 
Arrives @ 18:25 (Avg 30m late)
Platform# 5
SMTWTFS
Trivandrum Central/TVC 

40 halts. 102 intermediate Stations between Payangadi and Trivandrum Central

Show ALL intermediate Stations  Show Old Time-Table

#CodeStation NameX/OArrivesAvgDepartsAvgHaltPFDay#KmSpeedElevZoneAddress
1MAQMangalore Central (3)  -04:50+111-109.86114mSRMangalore 575001, Karnataka
2KGQKasaragod (3)  05:35+305:36+41m--1-64.16918mSRTel: 04994 220800, Kerala
3KZEKanhangad (3)  05:56+605:57+71m--1-41.05615mSRKanhangad, Kerala
4NLENileshwar (2)X  06:07+906:08+91m--1-31.76012mSRNileswaram, Kerala
5PAYPayyanur (3)  06:28+806:29+81m--1-11.7640mSRKannur District, Kerala
6PAZ»Payangadi»  06:40+806:41+81m--10.06412mSRKannur District, Kerala
7KPQKannapuram (2)X  06:48+906:49+91m--17.5339mSRKannur District, Kerala
8CANKannur Main (3)  07:15-207:20+25m3122.06514mSRKannur Tel: 0497 2705555, Kerala
9TLYThalassery (2)X  07:39+207:40+31m--142.7629mSRKannur, Kerala
10MAHEMahe (2)  07:49+407:50+41m--151.96416mSRMahe, Puducherry
11BDJVadakara (2)X  08:02+608:03+61m1164.88211mSRCalicut / Station Ph No : 0496-2524254, Kerala
12QLDKoyilandy (3)  08:19+908:20+111m--186.73611mSRQuilandi, Kerala
13CLTKozhikode Main (4)X  09:00-209:05+25m31111.04311mSRCalicut Tel: 0495 2701234, Kerala
14FKFerok (2)X  09:19+409:20+41m--1121.05119mSRFeroke, Kerala
15VLIVallikunnu (2)  09:32+609:33+61m--1131.24313mSRVallikkunnu, Kerala
16PGIParappangadi (2)  09:40+609:41+71m--1136.26119mSRParappanangadi, Kerala
17TATanur (3)X  09:49+909:50+91m--1144.35311mSRMalappuram, Kerala
18TIRTirur (3)  09:59+910:00+91m21152.3489mSRTel: 0494 2422240, Kerala
19KTUKuttippuram (2)  10:19+610:20+71m21167.37917mSRKuttippuram, Kerala
20PTBPattambi (2)X  10:34+1110:35+111m21185.82021mSRPattambi, Kerala
21SRRShoranur Junction (7)XO11:10-411:15+65m61197.45226mSRShoranur ph.no 0466-2222913, Kerala
22WKIWadakkanchery (2)  11:34+1611:35+171m11213.95840mSRWadackanchery, Kerala
23TCRThrissur (4)  11:52+1911:54+202m11230.3586mSRThrissur Tel: 0487 2423150, Kerala
24PUKPudukkad (2)X  12:08+2012:09+211m--1243.86111mSRPudukad, Kerala
25IJKIrinjalakkuda (2)  12:19+2112:20+211m21254.04818mSRKalletumkara, Kerala
26CKIChalakkudy (3)  12:28+2012:29+211m11260.5339mSRPh: 0480- 2701368, Kerala
27DINRDivine Nagar (2)X  12:33+2612:34+261m11262.77816mSRThrissur, Kerala
28AFKAngamaly for Kalady (3)  12:44+2612:45+261m21275.73716mSRPhone: 0484-2452340, Kerala
29AWYAluva (3)X  13:00+2213:02+222m11284.93112mSRPh: 0484-2624141, Kerala
30ERNErnakulam Town (North) (2)  13:35+813:40+85m21301.7399mSRTel: 0484 2395198, Kerala
31TRTRThrippunithura (2)13:55+1413:56+141m--1311.4645mSRErnakulam, Kerala
32PVRDPiravom Road  14:14+1914:15+211m11330.56512mSRKottayam, Kerala
33ETMEttumanur (1)  14:34+2814:35+291m11351.14228mSRKottayam, Kerala
34KTYMKottayam (3)  14:50+2914:53+313m11361.76715mSRTel: 0481 2563535, Kerala
35CGYChanganassery (3)X  15:09+3715:10+381m21379.55211mSRPh: 0481- 2420108, Kerala
36TRVLTiruvalla (2)X  15:19+4015:20+441m11387.43927mSRPh: 0469-2601314, Kerala
37CNGRChengannur (3)  15:34+4415:35+451m11396.5546mSRPh: 0479-2452340, Kerala
38MVLKMavelikara (3)X  15:49+4315:50+431m31409.04613mSRMavelikkara Ph: 0479-2302249, Kerala
39KYJKayamkulam Junction (5)X  16:00+4316:02+462m41416.76311mSRAlappuzha Ph;0479-2442042, Kerala
40KPYKarunagappalli (2)  16:15+4916:16+501m21430.45712mSRKollam Dist, Kerala
41STKTSasthamkotta (2)  16:24+5216:25+521m11438.0290mSRKollam Dist, Kerala
42QLNKollam Junction (6)X  17:05+3117:10+305m11457.57416mSRKollam 0474-2746194, Kerala
43PVUParavur (3)17:20+3417:21+351m--1469.98418mSRParavoor, Kerala
44VAKVarkala Sivagiri (3)X  17:29+3617:30+371m21481.17252mSREdava Kappil Road, Kerala
45KZKKazhakkuttam (3)X17:53+4017:54+401m--1508.86620mSRKulathoor ► Kazhakootam Road Kazhakootam PO Thiruvananthapuram, Kerala
46TVPThiruvananthapuram Pettah (2)  18:04+3118:05+311m11519.7718mSRTrivandrum Ph: 04712470181, Kerala
47TVC•Trivandrum Central (5)•X  18:25+3018:35+3110m51522.15412mSRPh: 0471-2321622, Kerala
48NYYNeyyattinkara  18:54+3718:55+401m--1539.37311mSRThiruvananthapuram, Kerala
49PASAParassalaX  19:04+4419:05+451m--1550.23145mSRParassala, Kerala
50KZTKulitturai  19:24+3719:25+371m--1560.14729mSRMarthandam, Tamil Nadu
51ERLEraniel  19:44+3219:45+341m--1574.92219mSRKanyakumari, Tamil Nadu
52NCJNagercoil Junction (3)  20:35+6---1593.2-22mSRNagercoil-629002, Tamil Nadu
Scroll to Top
Scroll to Bottom